sensor_id;sensor_type;location;lat;lon;timestamp;pressure;altitude;pressure_sealevel;temperature;humidity
10852;BME280;5479;52.046;6.314;2022-09-09T00:02:01;100679.78;;;15.11;100.00
10852;BME280;5479;52.046;6.314;2022-09-09T00:04:32;100672.66;;;15.12;100.00
10852;BME280;5479;52.046;6.314;2022-09-09T00:07:07;100674.13;;;15.05;100.00
10852;BME280;5479;52.046;6.314;2022-09-09T00:09:43;100682.50;;;15.00;100.00
10852;BME280;5479;52.046;6.314;2022-09-09T00:12:15;100675.69;;;14.96;100.00
10852;BME280;5479;52.046;6.314;2022-09-09T00:15:10;100685.75;;;14.93;100.00
10852;BME280;5479;52.046;6.314;2022-09-09T00:17:43;100678.72;;;14.92;100.00
10852;BME280;5479;52.046;6.314;2022-09-09T00:20:22;100675.09;;;14.82;100.00
10852;BME280;5479;52.046;6.314;2022-09-09T00:22:59;100675.81;;;14.73;100.00
10852;BME280;5479;52.046;6.314;2022-09-09T00:25:40;100679.19;;;14.75;100.00
10852;BME280;5479;52.046;6.314;2022-09-09T00:28:16;100674.94;;;14.72;100.00
10852;BME280;5479;52.046;6.314;2022-09-09T00:30:46;100673.28;;;14.71;100.00
10852;BME280;5479;52.046;6.314;2022-09-09T00:33:16;100670.25;;;14.76;100.00
10852;BME280;5479;52.046;6.314;2022-09-09T00:35:47;100675.19;;;14.80;100.00
10852;BME280;5479;52.046;6.314;2022-09-09T00:38:24;100670.50;;;14.84;100.00
10852;BME280;5479;52.046;6.314;2022-09-09T00:40:58;100674.50;;;14.89;100.00
10852;BME280;5479;52.046;6.314;2022-09-09T00:43:30;100671.19;;;14.86;100.00
10852;BME280;5479;52.046;6.314;2022-09-09T00:49:02;100659.06;;;14.93;100.00
10852;BME280;5479;52.046;6.314;2022-09-09T00:51:42;100669.75;;;14.93;100.00
10852;BME280;5479;52.046;6.314;2022-09-09T00:57:14;100671.06;;;14.87;100.00
10852;BME280;5479;52.046;6.314;2022-09-09T00:59:51;100663.81;;;14.89;100.00
10852;BME280;5479;52.046;6.314;2022-09-09T01:02:28;100662.00;;;14.90;100.00
10852;BME280;5479;52.046;6.314;2022-09-09T01:05:05;100656.66;;;14.68;100.00
10852;BME280;5479;52.046;6.314;2022-09-09T01:07:34;100648.88;;;14.54;100.00
10852;BME280;5479;52.046;6.314;2022-09-09T01:10:17;100650.22;;;14.59;100.00
10852;BME280;5479;52.046;6.314;2022-09-09T01:12:49;100649.38;;;14.70;100.00
10852;BME280;5479;52.046;6.314;2022-09-09T01:15:22;100646.72;;;14.59;100.00
10852;BME280;5479;52.046;6.314;2022-09-09T01:17:58;100656.91;;;14.65;100.00
10852;BME280;5479;52.046;6.314;2022-09-09T01:20:32;100655.44;;;14.72;100.00
10852;BME280;5479;52.046;6.314;2022-09-09T01:23:31;100660.19;;;14.68;100.00
10852;BME280;5479;52.046;6.314;2022-09-09T01:26:13;100654.84;;;14.68;100.00
10852;BME280;5479;52.046;6.314;2022-09-09T01:28:46;100653.38;;;14.64;100.00
10852;BME280;5479;52.046;6.314;2022-09-09T01:31:18;100655.94;;;14.55;100.00
10852;BME280;5479;52.046;6.314;2022-09-09T01:33:47;100649.03;;;14.52;100.00
10852;BME280;5479;52.046;6.314;2022-09-09T01:36:21;100650.59;;;14.43;100.00
10852;BME280;5479;52.046;6.314;2022-09-09T01:38:53;100642.09;;;14.38;100.00
10852;BME280;5479;52.046;6.314;2022-09-09T01:41:23;100647.44;;;14.38;100.00
10852;BME280;5479;52.046;6.314;2022-09-09T01:43:52;100647.44;;;14.38;100.00
10852;BME280;5479;52.046;6.314;2022-09-09T01:46:23;100645.09;;;14.34;100.00
10852;BME280;5479;52.046;6.314;2022-09-09T01:48:53;100652.47;;;14.30;100.00
10852;BME280;5479;52.046;6.314;2022-09-09T01:51:24;100646.19;;;14.31;100.00
10852;BME280;5479;52.046;6.314;2022-09-09T01:53:52;100646.03;;;14.22;100.00
10852;BME280;5479;52.046;6.314;2022-09-09T01:56:28;100648.56;;;14.23;100.00
10852;BME280;5479;52.046;6.314;2022-09-09T01:59:08;100651.56;;;14.19;100.00
10852;BME280;5479;52.046;6.314;2022-09-09T02:01:46;100654.16;;;14.20;100.00
10852;BME280;5479;52.046;6.314;2022-09-09T02:04:32;100647.09;;;14.19;100.00
10852;BME280;5479;52.046;6.314;2022-09-09T02:07:14;100650.22;;;14.13;100.00
10852;BME280;5479;52.046;6.314;2022-09-09T02:09:49;100648.03;;;14.07;100.00
10852;BME280;5479;52.046;6.314;2022-09-09T02:12:24;100652.63;;;14.05;100.00
10852;BME280;5479;52.046;6.314;2022-09-09T02:14:56;100650.94;;;14.04;100.00
10852;BME280;5479;52.046;6.314;2022-09-09T02:17:30;100652.84;;;14.02;100.00
10852;BME280;5479;52.046;6.314;2022-09-09T02:20:05;100656.59;;;14.00;100.00
10852;BME280;5479;52.046;6.314;2022-09-09T02:22:36;100654.91;;;13.99;100.00
10852;BME280;5479;52.046;6.314;2022-09-09T02:25:08;100651.13;;;13.90;100.00
10852;BME280;5479;52.046;6.314;2022-09-09T02:27:40;100656.69;;;13.87;100.00
10852;BME280;5479;52.046;6.314;2022-09-09T02:30:10;100648.69;;;13.87;100.00
10852;BME280;5479;52.046;6.314;2022-09-09T02:32:39;100653.66;;;13.91;100.00
10852;BME280;5479;52.046;6.314;2022-09-09T02:35:13;100648.81;;;13.85;100.00
10852;BME280;5479;52.046;6.314;2022-09-09T02:37:44;100643.97;;;13.79;100.00
10852;BME280;5479;52.046;6.314;2022-09-09T02:40:13;100645.47;;;13.71;100.00
10852;BME280;5479;52.046;6.314;2022-09-09T02:42:47;100645.94;;;13.65;100.00
10852;BME280;5479;52.046;6.314;2022-09-09T02:45:19;100652.69;;;13.58;100.00
10852;BME280;5479;52.046;6.314;2022-09-09T02:47:50;100643.47;;;13.51;100.00
10852;BME280;5479;52.046;6.314;2022-09-09T02:50:26;100654.78;;;13.42;100.00
10852;BME280;5479;52.046;6.314;2022-09-09T02:53:05;100651.94;;;13.32;100.00
10852;BME280;5479;52.046;6.314;2022-09-09T02:55:41;100655.47;;;13.20;100.00
10852;BME280;5479;52.046;6.314;2022-09-09T02:58:14;100654.19;;;13.25;100.00
10852;BME280;5479;52.046;6.314;2022-09-09T03:00:46;100653.78;;;13.19;100.00
10852;BME280;5479;52.046;6.314;2022-09-09T03:03:15;100654.41;;;13.22;100.00
10852;BME280;5479;52.046;6.314;2022-09-09T03:05:44;100653.56;;;13.22;100.00
10852;BME280;5479;52.046;6.314;2022-09-09T03:08:12;100652.09;;;13.18;100.00
10852;BME280;5479;52.046;6.314;2022-09-09T03:10:41;100646.13;;;13.14;100.00
10852;BME280;5479;52.046;6.314;2022-09-09T03:13:09;100647.94;;;13.14;100.00
10852;BME280;5479;52.046;6.314;2022-09-09T03:15:38;100651.56;;;13.13;100.00
10852;BME280;5479;52.046;6.314;2022-09-09T03:18:07;100641.66;;;13.15;100.00
10852;BME280;5479;52.046;6.314;2022-09-09T03:20:35;100641.44;;;13.18;100.00
10852;BME280;5479;52.046;6.314;2022-09-09T03:23:03;100646.44;;;13.22;100.00
10852;BME280;5479;52.046;6.314;2022-09-09T03:25:31;100640.09;;;13.12;100.00
10852;BME280;5479;52.046;6.314;2022-09-09T03:28:00;100644.00;;;13.19;100.00
10852;BME280;5479;52.046;6.314;2022-09-09T03:30:28;100646.34;;;13.11;100.00
10852;BME280;5479;52.046;6.314;2022-09-09T03:32:57;100648.91;;;13.13;100.00
10852;BME280;5479;52.046;6.314;2022-09-09T03:35:25;100656.34;;;13.20;100.00
10852;BME280;5479;52.046;6.314;2022-09-09T03:37:53;100653.38;;;13.12;100.00
10852;BME280;5479;52.046;6.314;2022-09-09T03:40:24;100652.19;;;13.16;100.00
10852;BME280;5479;52.046;6.314;2022-09-09T03:42:52;100655.13;;;13.24;100.00
10852;BME280;5479;52.046;6.314;2022-09-09T03:45:20;100649.28;;;13.32;100.00
10852;BME280;5479;52.046;6.314;2022-09-09T03:47:49;100660.44;;;13.24;100.00
10852;BME280;5479;52.046;6.314;2022-09-09T03:50:18;100652.72;;;13.21;100.00
10852;BME280;5479;52.046;6.314;2022-09-09T03:52:46;100660.69;;;13.21;100.00
10852;BME280;5479;52.046;6.314;2022-09-09T03:55:15;100649.53;;;13.16;100.00
10852;BME280;5479;52.046;6.314;2022-09-09T03:57:43;100647.28;;;13.23;100.00
10852;BME280;5479;52.046;6.314;2022-09-09T04:00:14;100657.28;;;13.19;100.00
10852;BME280;5479;52.046;6.314;2022-09-09T04:02:42;100653.69;;;13.20;100.00
10852;BME280;5479;52.046;6.314;2022-09-09T04:05:10;100656.13;;;13.23;100.00
10852;BME280;5479;52.046;6.314;2022-09-09T04:07:40;100652.25;;;13.27;100.00
10852;BME280;5479;52.046;6.314;2022-09-09T04:10:08;100650.75;;;13.36;100.00
10852;BME280;5479;52.046;6.314;2022-09-09T04:12:37;100646.28;;;13.37;100.00
10852;BME280;5479;52.046;6.314;2022-09-09T04:15:05;100643.06;;;13.44;100.00
10852;BME280;5479;52.046;6.314;2022-09-09T04:17:33;100638.19;;;13.38;100.00
10852;BME280;5479;52.046;6.314;2022-09-09T04:20:02;100632.63;;;13.41;100.00
10852;BME280;5479;52.046;6.314;2022-09-09T04:22:31;100643.91;;;13.45;100.00
10852;BME280;5479;52.046;6.314;2022-09-09T04:25:02;100644.19;;;13.53;100.00
10852;BME280;5479;52.046;6.314;2022-09-09T04:27:31;100645.94;;;13.65;100.00
10852;BME280;5479;52.046;6.314;2022-09-09T04:29:59;100639.44;;;13.69;100.00
10852;BME280;5479;52.046;6.314;2022-09-09T04:32:27;100635.19;;;13.66;100.00
10852;BME280;5479;52.046;6.314;2022-09-09T04:34:55;100640.16;;;13.71;100.00
10852;BME280;5479;52.046;6.314;2022-09-09T04:37:25;100633.13;;;13.70;100.00
10852;BME280;5479;52.046;6.314;2022-09-09T04:39:53;100634.16;;;13.80;100.00
10852;BME280;5479;52.046;6.314;2022-09-09T04:42:24;100627.84;;;13.81;100.00
10852;BME280;5479;52.046;6.314;2022-09-09T04:44:54;100638.28;;;13.84;100.00
10852;BME280;5479;52.046;6.314;2022-09-09T04:47:22;100630.56;;;13.92;100.00
10852;BME280;5479;52.046;6.314;2022-09-09T04:49:50;100632.00;;;13.85;100.00
10852;BME280;5479;52.046;6.314;2022-09-09T04:52:18;100628.63;;;13.83;100.00
10852;BME280;5479;52.046;6.314;2022-09-09T04:54:46;100622.13;;;13.98;100.00
10852;BME280;5479;52.046;6.314;2022-09-09T04:57:14;100615.72;;;14.01;100.00
10852;BME280;5479;52.046;6.314;2022-09-09T04:59:44;100626.50;;;14.10;100.00
10852;BME280;5479;52.046;6.314;2022-09-09T05:02:12;100620.72;;;14.16;100.00
10852;BME280;5479;52.046;6.314;2022-09-09T05:04:40;100626.03;;;14.16;100.00
10852;BME280;5479;52.046;6.314;2022-09-09T05:07:08;100624.94;;;14.19;100.00
10852;BME280;5479;52.046;6.314;2022-09-09T05:09:37;100620.84;;;14.26;100.00
10852;BME280;5479;52.046;6.314;2022-09-09T05:12:05;100630.44;;;14.28;100.00
10852;BME280;5479;52.046;6.314;2022-09-09T05:14:33;100627.53;;;14.31;100.00
10852;BME280;5479;52.046;6.314;2022-09-09T05:17:04;100621.97;;;14.34;100.00
10852;BME280;5479;52.046;6.314;2022-09-09T05:19:33;100617.63;;;14.33;100.00
10852;BME280;5479;52.046;6.314;2022-09-09T05:22:02;100618.72;;;14.42;100.00
10852;BME280;5479;52.046;6.314;2022-09-09T05:24:30;100617.63;;;14.33;100.00
10852;BME280;5479;52.046;6.314;2022-09-09T05:26:59;100614.63;;;14.49;100.00
10852;BME280;5479;52.046;6.314;2022-09-09T05:29:28;100614.25;;;14.54;100.00
10852;BME280;5479;52.046;6.314;2022-09-09T05:32:00;100614.00;;;14.57;100.00
10852;BME280;5479;52.046;6.314;2022-09-09T05:34:29;100607.59;;;14.59;100.00
10852;BME280;5479;52.046;6.314;2022-09-09T05:36:57;100609.66;;;14.67;100.00
10852;BME280;5479;52.046;6.314;2022-09-09T05:39:25;100603.59;;;14.65;100.00
10852;BME280;5479;52.046;6.314;2022-09-09T05:41:54;100615.34;;;14.73;100.00
10852;BME280;5479;52.046;6.314;2022-09-09T05:44:24;100614.25;;;14.65;100.00
10852;BME280;5479;52.046;6.314;2022-09-09T05:46:54;100614.97;;;14.67;100.00
10852;BME280;5479;52.046;6.314;2022-09-09T05:49:22;100616.94;;;14.65;100.00
10852;BME280;5479;52.046;6.314;2022-09-09T05:51:53;100620.06;;;14.70;100.00
10852;BME280;5479;52.046;6.314;2022-09-09T05:54:22;100624.06;;;14.64;100.00
10852;BME280;5479;52.046;6.314;2022-09-09T05:56:50;100624.44;;;14.60;100.00
10852;BME280;5479;52.046;6.314;2022-09-09T05:59:20;100623.97;;;14.66;100.00
10852;BME280;5479;52.046;6.314;2022-09-09T06:01:49;100628.78;;;14.72;100.00
10852;BME280;5479;52.046;6.314;2022-09-09T06:04:17;100639.59;;;14.81;100.00
10852;BME280;5479;52.046;6.314;2022-09-09T06:06:48;100635.59;;;14.76;100.00
10852;BME280;5479;52.046;6.314;2022-09-09T06:09:18;100636.78;;;14.83;100.00
10852;BME280;5479;52.046;6.314;2022-09-09T06:11:46;100636.53;;;14.75;100.00
10852;BME280;5479;52.046;6.314;2022-09-09T06:14:15;100636.06;;;14.70;100.00
10852;BME280;5479;52.046;6.314;2022-09-09T06:16:44;100641.63;;;14.78;100.00
10852;BME280;5479;52.046;6.314;2022-09-09T06:19:12;100637.78;;;14.82;100.00
10852;BME280;5479;52.046;6.314;2022-09-09T06:21:40;100636.44;;;14.76;100.00
10852;BME280;5479;52.046;6.314;2022-09-09T06:24:09;100634.72;;;14.97;100.00
10852;BME280;5479;52.046;6.314;2022-09-09T06:26:41;100646.34;;;14.96;100.00
10852;BME280;5479;52.046;6.314;2022-09-09T06:29:09;100640.31;;;14.94;100.00
10852;BME280;5479;52.046;6.314;2022-09-09T06:31:37;100632.31;;;15.05;100.00
10852;BME280;5479;52.046;6.314;2022-09-09T06:34:08;100628.88;;;15.15;100.00
10852;BME280;5479;52.046;6.314;2022-09-09T06:36:37;100637.25;;;15.21;100.00
10852;BME280;5479;52.046;6.314;2022-09-09T06:39:06;100632.25;;;15.28;100.00
10852;BME280;5479;52.046;6.314;2022-09-09T06:41:37;100622.78;;;15.35;100.00
10852;BME280;5479;52.046;6.314;2022-09-09T06:44:08;100619.72;;;15.50;100.00
10852;BME280;5479;52.046;6.314;2022-09-09T06:46:38;100622.75;;;15.89;100.00
10852;BME280;5479;52.046;6.314;2022-09-09T06:49:07;100624.78;;;16.98;100.00
10852;BME280;5479;52.046;6.314;2022-09-09T06:51:36;100626.88;;;17.44;100.00
10852;BME280;5479;52.046;6.314;2022-09-09T06:54:10;100631.44;;;17.23;100.00
10852;BME280;5479;52.046;6.314;2022-09-09T06:56:40;100623.84;;;17.18;100.00
10852;BME280;5479;52.046;6.314;2022-09-09T06:59:11;100628.31;;;17.58;100.00
10852;BME280;5479;52.046;6.314;2022-09-09T07:01:41;100617.00;;;18.31;100.00
10852;BME280;5479;52.046;6.314;2022-09-09T07:04:10;100618.50;;;19.16;100.00
10852;BME280;5479;52.046;6.314;2022-09-09T07:06:41;100615.44;;;19.39;100.00
10852;BME280;5479;52.046;6.314;2022-09-09T07:09:11;100614.69;;;19.19;100.00
10852;BME280;5479;52.046;6.314;2022-09-09T07:11:42;100627.06;;;18.75;100.00
10852;BME280;5479;52.046;6.314;2022-09-09T07:14:13;100628.28;;;18.25;100.00
10852;BME280;5479;52.046;6.314;2022-09-09T07:16:44;100625.78;;;18.14;100.00
10852;BME280;5479;52.046;6.314;2022-09-09T07:19:13;100625.25;;;17.81;100.00
10852;BME280;5479;52.046;6.314;2022-09-09T07:21:42;100619.03;;;18.00;100.00
10852;BME280;5479;52.046;6.314;2022-09-09T07:24:10;100622.63;;;18.56;100.00
10852;BME280;5479;52.046;6.314;2022-09-09T07:26:39;100630.50;;;18.58;100.00
10852;BME280;5479;52.046;6.314;2022-09-09T07:29:11;100623.03;;;18.33;100.00
10852;BME280;5479;52.046;6.314;2022-09-09T07:31:41;100617.59;;;17.96;100.00
10852;BME280;5479;52.046;6.314;2022-09-09T07:34:09;100631.44;;;17.91;100.00
10852;BME280;5479;52.046;6.314;2022-09-09T07:36:39;100642.28;;;17.80;100.00
10852;BME280;5479;52.046;6.314;2022-09-09T07:39:10;100644.41;;;17.67;100.00
10852;BME280;5479;52.046;6.314;2022-09-09T07:41:44;100639.16;;;17.56;100.00
10852;BME280;5479;52.046;6.314;2022-09-09T07:44:18;100636.38;;;17.18;100.00
10852;BME280;5479;52.046;6.314;2022-09-09T07:46:50;100640.66;;;17.30;100.00
10852;BME280;5479;52.046;6.314;2022-09-09T07:49:20;100646.84;;;17.40;100.00
10852;BME280;5479;52.046;6.314;2022-09-09T07:51:49;100637.16;;;17.48;100.00
10852;BME280;5479;52.046;6.314;2022-09-09T07:54:18;100643.06;;;17.42;100.00
10852;BME280;5479;52.046;6.314;2022-09-09T07:56:50;100647.13;;;17.37;100.00
10852;BME280;5479;52.046;6.314;2022-09-09T07:59:21;100644.56;;;17.26;100.00
10852;BME280;5479;52.046;6.314;2022-09-09T08:01:51;100642.91;;;17.34;100.00
10852;BME280;5479;52.046;6.314;2022-09-09T08:04:22;100649.69;;;17.38;100.00
10852;BME280;5479;52.046;6.314;2022-09-09T08:06:54;100652.09;;;17.51;100.00
10852;BME280;5479;52.046;6.314;2022-09-09T08:09:22;100648.78;;;17.68;100.00
10852;BME280;5479;52.046;6.314;2022-09-09T08:11:51;100652.59;;;17.94;100.00
10852;BME280;5479;52.046;6.314;2022-09-09T08:14:21;100650.88;;;18.13;100.00
10852;BME280;5479;52.046;6.314;2022-09-09T08:16:50;100657.94;;;18.04;100.00
10852;BME280;5479;52.046;6.314;2022-09-09T08:19:20;100664.00;;;18.06;100.00
10852;BME280;5479;52.046;6.314;2022-09-09T08:21:48;100657.34;;;18.00;100.00
10852;BME280;5479;52.046;6.314;2022-09-09T08:24:16;100655.09;;;18.15;100.00
10852;BME280;5479;52.046;6.314;2022-09-09T08:26:47;100659.78;;;18.13;100.00
10852;BME280;5479;52.046;6.314;2022-09-09T08:29:16;100657.94;;;18.14;100.00
10852;BME280;5479;52.046;6.314;2022-09-09T08:31:47;100652.53;;;18.33;100.00
10852;BME280;5479;52.046;6.314;2022-09-09T08:34:16;100649.84;;;18.33;100.00
10852;BME280;5479;52.046;6.314;2022-09-09T08:36:48;100652.25;;;18.45;100.00
10852;BME280;5479;52.046;6.314;2022-09-09T08:39:18;100650.19;;;18.76;100.00
10852;BME280;5479;52.046;6.314;2022-09-09T08:42:17;100651.56;;;18.90;100.00
10852;BME280;5479;52.046;6.314;2022-09-09T08:45:12;100648.75;;;19.46;100.00
10852;BME280;5479;52.046;6.314;2022-09-09T08:47:51;100648.78;;;19.63;100.00
10852;BME280;5479;52.046;6.314;2022-09-09T08:50:26;100653.41;;;19.71;100.00
10852;BME280;5479;52.046;6.314;2022-09-09T08:53:01;100648.78;;;19.81;100.00
10852;BME280;5479;52.046;6.314;2022-09-09T08:55:37;100645.25;;;19.63;100.00
10852;BME280;5479;52.046;6.314;2022-09-09T08:58:12;100639.47;;;19.93;100.00
10852;BME280;5479;52.046;6.314;2022-09-09T09:00:50;100645.56;;;19.60;100.00
10852;BME280;5479;52.046;6.314;2022-09-09T09:03:30;100640.47;;;19.57;100.00
10852;BME280;5479;52.046;6.314;2022-09-09T09:06:13;100651.38;;;19.91;100.00
10852;BME280;5479;52.046;6.314;2022-09-09T09:08:51;100661.47;;;20.24;100.00
10852;BME280;5479;52.046;6.314;2022-09-09T09:11:23;100655.91;;;20.43;100.00
10852;BME280;5479;52.046;6.314;2022-09-09T09:13:55;100661.06;;;20.19;100.00
10852;BME280;5479;52.046;6.314;2022-09-09T09:16:30;100654.72;;;19.84;100.00
10852;BME280;5479;52.046;6.314;2022-09-09T09:19:01;100659.84;;;19.78;100.00
10852;BME280;5479;52.046;6.314;2022-09-09T09:21:36;100662.91;;;20.01;100.00
10852;BME280;5479;52.046;6.314;2022-09-09T09:24:14;100655.22;;;19.53;100.00
10852;BME280;5479;52.046;6.314;2022-09-09T09:26:45;100658.56;;;19.82;100.00
10852;BME280;5479;52.046;6.314;2022-09-09T09:29:17;100666.53;;;19.74;100.00
10852;BME280;5479;52.046;6.314;2022-09-09T09:31:47;100663.81;;;19.56;100.00
10852;BME280;5479;52.046;6.314;2022-09-09T09:34:19;100673.41;;;19.04;100.00
10852;BME280;5479;52.046;6.314;2022-09-09T09:36:53;100663.47;;;19.14;100.00
10852;BME280;5479;52.046;6.314;2022-09-09T09:39:25;100674.09;;;19.06;100.00
10852;BME280;5479;52.046;6.314;2022-09-09T09:41:54;100664.44;;;19.13;100.00
10852;BME280;5479;52.046;6.314;2022-09-09T09:44:25;100672.00;;;19.27;100.00
10852;BME280;5479;52.046;6.314;2022-09-09T09:47:06;100672.53;;;19.41;100.00
10852;BME280;5479;52.046;6.314;2022-09-09T09:49:35;100664.44;;;19.68;100.00
10852;BME280;5479;52.046;6.314;2022-09-09T09:52:04;100652.53;;;19.70;100.00
10852;BME280;5479;52.046;6.314;2022-09-09T09:54:34;100666.91;;;19.34;100.00
10852;BME280;5479;52.046;6.314;2022-09-09T09:57:09;100668.06;;;19.22;100.00
10852;BME280;5479;52.046;6.314;2022-09-09T09:59:38;100668.06;;;19.22;100.00
10852;BME280;5479;52.046;6.314;2022-09-09T10:02:15;100671.16;;;19.27;100.00
10852;BME280;5479;52.046;6.314;2022-09-09T10:04:45;100667.34;;;19.57;100.00
10852;BME280;5479;52.046;6.314;2022-09-09T10:07:18;100660.91;;;19.85;100.00
10852;BME280;5479;52.046;6.314;2022-09-09T10:09:51;100665.22;;;20.13;100.00
10852;BME280;5479;52.046;6.314;2022-09-09T10:12:29;100658.84;;;21.17;100.00
10852;BME280;5479;52.046;6.314;2022-09-09T10:15:02;100654.16;;;22.74;95.06
10852;BME280;5479;52.046;6.314;2022-09-09T10:17:44;100652.56;;;23.04;83.81
10852;BME280;5479;52.046;6.314;2022-09-09T10:20:28;100653.84;;;22.69;83.62
10852;BME280;5479;52.046;6.314;2022-09-09T10:23:10;100664.38;;;21.57;87.98
10852;BME280;5479;52.046;6.314;2022-09-09T10:25:54;100660.31;;;21.37;93.69
10852;BME280;5479;52.046;6.314;2022-09-09T10:28:37;100642.47;;;21.02;95.01
10852;BME280;5479;52.046;6.314;2022-09-09T10:31:19;100655.66;;;20.88;97.08
10852;BME280;5479;52.046;6.314;2022-09-09T10:34:00;100655.22;;;21.34;94.67
10852;BME280;5479;52.046;6.314;2022-09-09T10:36:33;100645.56;;;21.82;88.80
10852;BME280;5479;52.046;6.314;2022-09-09T10:39:04;100658.66;;;21.60;90.29
10852;BME280;5479;52.046;6.314;2022-09-09T10:41:44;100654.97;;;21.61;89.28
10852;BME280;5479;52.046;6.314;2022-09-09T10:44:18;100651.69;;;21.34;91.13
10852;BME280;5479;52.046;6.314;2022-09-09T10:47:00;100656.22;;;21.33;92.14
10852;BME280;5479;52.046;6.314;2022-09-09T10:50:03;100654.66;;;20.89;94.93
10852;BME280;5479;52.046;6.314;2022-09-09T10:52:39;100654.91;;;20.70;98.62
10852;BME280;5479;52.046;6.314;2022-09-09T10:55:10;100656.50;;;20.88;96.39
10852;BME280;5479;52.046;6.314;2022-09-09T10:57:41;100652.69;;;20.99;95.48
10852;BME280;5479;52.046;6.314;2022-09-09T11:00:16;100651.00;;;21.24;93.63
10852;BME280;5479;52.046;6.314;2022-09-09T11:02:48;100656.66;;;21.13;90.01
10852;BME280;5479;52.046;6.314;2022-09-09T11:05:20;100658.41;;;20.96;91.81
10852;BME280;5479;52.046;6.314;2022-09-09T11:07:55;100659.69;;;20.58;93.44
10852;BME280;5479;52.046;6.314;2022-09-09T11:10:38;100660.97;;;20.46;94.55
10852;BME280;5479;52.046;6.314;2022-09-09T11:13:11;100657.72;;;20.42;93.94
10852;BME280;5479;52.046;6.314;2022-09-09T11:15:45;100648.25;;;20.30;96.40
10852;BME280;5479;52.046;6.314;2022-09-09T11:18:19;100655.78;;;20.27;96.79
10852;BME280;5479;52.046;6.314;2022-09-09T11:20:53;100659.44;;;20.26;98.31
10852;BME280;5479;52.046;6.314;2022-09-09T11:23:26;100646.31;;;19.70;99.68
10852;BME280;5479;52.046;6.314;2022-09-09T11:25:56;100649.84;;;19.53;100.00
10852;BME280;5479;52.046;6.314;2022-09-09T11:28:35;100659.97;;;19.59;100.00
10852;BME280;5479;52.046;6.314;2022-09-09T11:31:21;100665.72;;;19.46;100.00
10852;BME280;5479;52.046;6.314;2022-09-09T11:34:06;100658.13;;;19.42;100.00
10852;BME280;5479;52.046;6.314;2022-09-09T11:37:03;100655.53;;;19.50;100.00
10852;BME280;5479;52.046;6.314;2022-09-09T11:42:44;100649.38;;;20.10;100.00
10852;BME280;5479;52.046;6.314;2022-09-09T11:45:23;100650.28;;;20.36;100.00
10852;BME280;5479;52.046;6.314;2022-09-09T11:47:53;100656.75;;;20.43;99.11
10852;BME280;5479;52.046;6.314;2022-09-09T11:50:34;100649.44;;;20.36;99.62
10852;BME280;5479;52.046;6.314;2022-09-09T11:53:23;100653.91;;;20.10;99.60
10852;BME280;5479;52.046;6.314;2022-09-09T11:56:12;100642.94;;;19.68;100.00
10852;BME280;5479;52.046;6.314;2022-09-09T11:58:43;100652.75;;;19.32;100.00
10852;BME280;5479;52.046;6.314;2022-09-09T12:01:16;100642.38;;;19.19;100.00
10852;BME280;5479;52.046;6.314;2022-09-09T12:04:10;100639.00;;;19.17;100.00
10852;BME280;5479;52.046;6.314;2022-09-09T12:06:44;100649.44;;;19.20;100.00
10852;BME280;5479;52.046;6.314;2022-09-09T12:09:20;100662.44;;;19.15;100.00
10852;BME280;5479;52.046;6.314;2022-09-09T12:12:04;100668.53;;;18.81;100.00
10852;BME280;5479;52.046;6.314;2022-09-09T12:14:37;100668.63;;;18.33;100.00
10852;BME280;5479;52.046;6.314;2022-09-09T12:17:10;100675.16;;;17.92;100.00
10852;BME280;5479;52.046;6.314;2022-09-09T12:19:46;100692.06;;;17.73;100.00
10852;BME280;5479;52.046;6.314;2022-09-09T12:22:22;100693.16;;;17.61;100.00
10852;BME280;5479;52.046;6.314;2022-09-09T12:24:58;100679.00;;;17.49;100.00
10852;BME280;5479;52.046;6.314;2022-09-09T12:27:36;100680.69;;;17.41;100.00
10852;BME280;5479;52.046;6.314;2022-09-09T12:30:10;100687.94;;;17.69;100.00
10852;BME280;5479;52.046;6.314;2022-09-09T12:32:41;100679.50;;;17.93;100.00
10852;BME280;5479;52.046;6.314;2022-09-09T12:35:20;100676.81;;;18.12;100.00
10852;BME280;5479;52.046;6.314;2022-09-09T12:37:55;100665.38;;;18.39;100.00
10852;BME280;5479;52.046;6.314;2022-09-09T12:40:26;100673.28;;;18.40;100.00
10852;BME280;5479;52.046;6.314;2022-09-09T12:42:56;100664.38;;;18.40;100.00
10852;BME280;5479;52.046;6.314;2022-09-09T12:45:27;100668.94;;;18.30;100.00
10852;BME280;5479;52.046;6.314;2022-09-09T12:47:58;100666.38;;;18.38;100.00
10852;BME280;5479;52.046;6.314;2022-09-09T12:50:32;100672.56;;;18.38;100.00
10852;BME280;5479;52.046;6.314;2022-09-09T12:53:03;100675.56;;;18.06;100.00
10852;BME280;5479;52.046;6.314;2022-09-09T12:55:36;100673.59;;;17.89;100.00
10852;BME280;5479;52.046;6.314;2022-09-09T12:58:13;100665.25;;;17.83;100.00
10852;BME280;5479;52.046;6.314;2022-09-09T13:00:52;100667.38;;;17.79;100.00
10852;BME280;5479;52.046;6.314;2022-09-09T13:03:23;100661.59;;;17.93;100.00
10852;BME280;5479;52.046;6.314;2022-09-09T13:05:58;100652.72;;;18.12;100.00
10852;BME280;5479;52.046;6.314;2022-09-09T13:08:37;100654.22;;;18.34;100.00
10852;BME280;5479;52.046;6.314;2022-09-09T13:11:09;100650.81;;;18.60;100.00
10852;BME280;5479;52.046;6.314;2022-09-09T13:13:50;100648.88;;;18.53;100.00
10852;BME280;5479;52.046;6.314;2022-09-09T13:16:26;100644.72;;;18.68;100.00
10852;BME280;5479;52.046;6.314;2022-09-09T13:18:59;100638.38;;;18.69;100.00
10852;BME280;5479;52.046;6.314;2022-09-09T13:21:33;100631.94;;;18.89;100.00
10852;BME280;5479;52.046;6.314;2022-09-09T13:24:01;100625.28;;;19.20;100.00
10852;BME280;5479;52.046;6.314;2022-09-09T13:26:33;100637.09;;;19.00;100.00
10852;BME280;5479;52.046;6.314;2022-09-09T13:29:16;100633.84;;;19.06;100.00